createdAt,value
2018-04-01T00:00:25.754Z,6.69
2018-04-01T00:02:52.639Z,6.66
2018-04-01T00:05:19.564Z,6.61
2018-04-01T00:07:46.442Z,6.60
2018-04-01T00:10:13.362Z,6.62
2018-04-01T00:12:40.331Z,6.63
2018-04-01T00:15:07.220Z,6.66
2018-04-01T00:17:34.118Z,6.62
2018-04-01T00:20:01.001Z,6.54
2018-04-01T00:22:27.907Z,6.60
2018-04-01T00:24:54.791Z,6.50
2018-04-01T00:27:21.718Z,6.46
2018-04-01T00:29:48.636Z,6.45
2018-04-01T00:32:15.538Z,6.48
2018-04-01T00:34:42.427Z,6.48
2018-04-01T00:37:09.344Z,6.44
2018-04-01T00:39:36.240Z,6.41
2018-04-01T00:42:03.163Z,6.35
2018-04-01T00:44:30.114Z,6.33
2018-04-01T00:46:57.034Z,6.34
2018-04-01T00:51:57.190Z,6.28
2018-04-01T00:54:24.443Z,6.33
2018-04-01T00:56:51.322Z,6.40
2018-04-01T00:59:18.225Z,6.46
2018-04-01T01:01:45.134Z,6.50
2018-04-01T01:04:12.071Z,6.51
2018-04-01T01:06:38.966Z,6.59
2018-04-01T01:09:05.804Z,6.62
2018-04-01T02:03:03.449Z,6.36
2018-04-01T02:05:30.360Z,6.40
2018-04-01T02:07:57.212Z,6.40
2018-04-01T02:10:24.121Z,6.42
2018-04-01T02:12:50.968Z,6.46
2018-04-01T02:15:17.870Z,6.51
2018-04-01T02:17:44.745Z,6.55
2018-04-01T02:20:11.665Z,6.48
2018-04-01T02:22:38.551Z,6.43
2018-04-01T02:25:05.483Z,6.29
2018-04-01T02:27:32.398Z,6.30
2018-04-01T02:29:59.296Z,6.36
2018-04-01T02:32:26.184Z,6.34
2018-04-01T02:34:53.104Z,6.34
2018-04-01T02:37:20.017Z,6.30
2018-04-01T02:39:46.905Z,6.27
2018-04-01T02:44:40.570Z,6.37
2018-04-01T02:47:07.461Z,6.43
2018-04-01T02:49:34.356Z,6.47
2018-04-01T02:52:01.247Z,6.44
2018-04-01T02:54:28.102Z,6.47
2018-04-01T02:56:54.988Z,6.49
2018-04-01T02:59:21.931Z,6.44
2018-04-01T03:01:48.868Z,6.46
2018-04-01T03:04:15.787Z,6.54
2018-04-01T03:06:42.673Z,6.58
2018-04-01T03:09:09.540Z,6.45
2018-04-01T03:11:36.489Z,6.40
2018-04-01T03:14:03.375Z,6.45
2018-04-01T03:16:30.351Z,6.42
2018-04-01T03:18:57.242Z,6.38
2018-04-01T03:21:24.097Z,6.38
2018-04-01T03:23:51.027Z,6.38
2018-04-01T03:26:17.892Z,6.45
2018-04-01T03:28:45.025Z,6.49
2018-04-01T03:31:11.893Z,6.48
2018-04-01T03:33:38.787Z,6.50
2018-04-01T03:36:05.695Z,6.51
2018-04-01T03:38:32.622Z,6.55
2018-04-01T03:40:59.493Z,6.62
2018-04-01T03:43:26.377Z,6.64
2018-04-01T03:45:53.291Z,6.66
2018-04-01T03:48:20.128Z,6.69
2018-04-01T03:50:49.996Z,6.68
2018-04-01T03:53:16.884Z,6.58
2018-04-01T03:55:43.738Z,6.56
2018-04-01T03:58:10.661Z,6.57
2018-04-01T04:00:37.519Z,6.60
2018-04-01T04:03:04.425Z,6.56
2018-04-01T04:05:31.289Z,6.48
2018-04-01T04:07:58.140Z,6.50
2018-04-01T04:10:25.095Z,6.46
2018-04-01T04:12:52.039Z,6.40
2018-04-01T04:15:18.923Z,6.30
2018-04-01T04:17:45.836Z,6.21
2018-04-01T04:20:12.721Z,6.23
2018-04-01T04:22:39.609Z,6.24
2018-04-01T04:25:06.685Z,6.28
2018-04-01T04:27:33.546Z,6.30
2018-04-01T04:30:00.440Z,6.34
2018-04-01T04:32:27.539Z,6.33
2018-04-01T04:34:54.427Z,6.29
2018-04-01T04:37:24.426Z,6.25
2018-04-01T04:39:51.313Z,6.28
2018-04-01T04:42:18.959Z,6.36
2018-04-01T04:44:45.820Z,6.44
2018-04-01T04:47:12.709Z,6.36
2018-04-01T04:49:39.593Z,6.33
2018-04-01T04:52:06.466Z,6.33
2018-04-01T04:54:33.319Z,6.43
2018-04-01T04:57:00.222Z,6.49
2018-04-01T04:59:27.105Z,6.52
2018-04-01T05:01:54.043Z,6.72
2018-04-01T05:04:20.889Z,6.72
2018-04-01T05:06:47.818Z,6.72
2018-04-01T05:09:14.764Z,6.74
2018-04-01T05:11:41.618Z,6.78
2018-04-01T05:14:08.697Z,6.75
2018-04-01T05:16:35.948Z,6.76
2018-04-01T05:19:02.967Z,6.71
2018-04-01T05:21:32.788Z,6.66
2018-04-01T05:23:59.706Z,6.59
2018-04-01T05:26:26.612Z,6.55
2018-04-01T05:28:53.609Z,6.49
2018-04-01T05:31:20.496Z,6.49
2018-04-01T05:33:47.422Z,6.54
2018-04-01T05:36:14.307Z,6.64
2018-04-01T05:38:44.205Z,6.56
2018-04-01T05:41:11.068Z,6.48
2018-04-01T05:43:37.967Z,6.48
2018-04-01T05:46:04.843Z,6.50
2018-04-01T05:48:31.718Z,6.48
2018-04-01T05:53:30.793Z,6.58
2018-04-01T05:55:57.711Z,6.59
2018-04-01T05:58:27.732Z,6.65
2018-04-01T06:00:54.668Z,6.75
2018-04-01T06:03:21.590Z,6.84
2018-04-01T06:05:48.529Z,6.88
2018-04-01T06:08:15.401Z,6.90
2018-04-01T06:10:42.300Z,6.80
2018-04-01T06:13:09.152Z,6.76
2018-04-01T06:15:35.995Z,6.82
2018-04-01T06:18:02.885Z,6.80
2018-04-01T06:20:29.771Z,6.75
2018-04-01T06:22:59.637Z,6.75
2018-04-01T06:25:26.517Z,6.76
2018-04-01T06:27:53.486Z,6.75
2018-04-01T06:30:20.328Z,6.69
2018-04-01T06:32:47.217Z,6.71
2018-04-01T06:35:14.116Z,6.73
2018-04-01T06:37:40.983Z,6.75
2018-04-01T06:40:10.860Z,6.80
2018-04-01T06:42:37.707Z,6.86
2018-04-01T06:45:04.661Z,6.87
2018-04-01T06:47:31.548Z,6.81
2018-04-01T06:49:58.470Z,6.86
2018-04-01T06:52:25.405Z,6.97
2018-04-01T06:54:52.325Z,7.01
2018-04-01T06:57:19.257Z,7.07
2018-04-01T06:59:52.000Z,7.12
2018-04-01T07:02:18.902Z,7.23
2018-04-01T07:04:45.862Z,7.32
2018-04-01T07:07:12.955Z,7.37
2018-04-01T07:09:39.894Z,7.43
2018-04-01T07:12:06.767Z,7.47
2018-04-01T07:14:33.654Z,7.49
2018-04-01T07:17:00.535Z,7.48
2018-04-01T07:19:27.430Z,7.41
2018-04-01T07:21:54.364Z,7.41
2018-04-01T07:24:21.294Z,7.41
2018-04-01T07:26:51.338Z,7.49
2018-04-01T07:29:18.236Z,7.54
2018-04-01T07:31:45.123Z,7.66
2018-04-01T07:34:12.044Z,7.79
2018-04-01T07:36:38.925Z,7.82
2018-04-01T07:39:05.793Z,7.70
2018-04-01T07:41:32.670Z,7.65
2018-04-01T07:43:59.552Z,7.71
2018-04-01T07:46:26.483Z,7.74
2018-04-01T07:48:53.420Z,7.94
2018-04-01T07:51:20.303Z,8.22
2018-04-01T07:53:47.204Z,8.25
2018-04-01T07:56:14.085Z,8.24
2018-04-01T07:58:40.968Z,8.27
2018-04-01T08:01:08.026Z,8.45
2018-04-01T08:03:34.977Z,8.71
2018-04-01T08:06:01.921Z,8.82
2018-04-01T08:11:21.501Z,8.49
2018-04-01T08:13:48.397Z,8.60
2018-04-01T08:16:38.937Z,8.73
2018-04-01T08:19:05.967Z,8.67
2018-04-01T08:21:33.021Z,8.64
2018-04-01T08:23:59.895Z,8.64
2018-04-01T08:26:26.768Z,8.90
2018-04-01T08:28:53.668Z,8.98
2018-04-01T08:31:20.525Z,9.02
2018-04-01T08:33:47.380Z,8.98
2018-04-01T08:36:14.315Z,9.00
2018-04-01T08:38:41.206Z,9.07
2018-04-01T08:41:08.064Z,9.13
2018-04-01T08:43:34.944Z,9.71
2018-04-01T08:46:01.885Z,9.74
2018-04-01T08:48:28.829Z,9.84
2018-04-01T08:50:55.688Z,10.03
2018-04-01T08:53:22.574Z,9.78
2018-04-01T08:55:49.513Z,9.65
2018-04-01T08:58:16.404Z,9.51
2018-04-01T09:00:43.302Z,9.41
2018-04-01T09:03:10.487Z,9.25
2018-04-01T09:05:37.373Z,9.12
2018-04-01T09:08:04.281Z,9.01
2018-04-01T09:10:31.211Z,9.09
2018-04-01T09:12:58.176Z,9.03
2018-04-01T09:15:25.056Z,8.99
2018-04-01T09:17:51.967Z,8.79
2018-04-01T09:20:18.845Z,8.64
2018-04-01T09:22:45.728Z,8.74
2018-04-01T09:25:12.632Z,8.93
2018-04-01T09:27:39.543Z,9.06
2018-04-01T09:30:06.476Z,9.19
2018-04-01T09:32:33.410Z,9.28
2018-04-01T09:35:00.271Z,9.23
2018-04-01T09:37:27.119Z,9.29
2018-04-01T09:39:54.020Z,9.24
2018-04-01T09:42:20.920Z,9.40
2018-04-01T09:44:47.906Z,9.62
2018-04-01T09:47:14.831Z,9.69
2018-04-01T09:49:41.721Z,9.67
2018-04-01T09:52:08.585Z,9.74
2018-04-01T09:54:35.436Z,9.74
2018-04-01T09:57:02.292Z,9.76
2018-04-01T09:59:43.670Z,9.87
2018-04-01T10:02:11.127Z,10.19
2018-04-01T10:04:38.735Z,10.48
2018-04-01T10:07:06.170Z,10.81
2018-04-01T10:09:34.137Z,11.39
2018-04-01T10:12:01.553Z,11.64
2018-04-01T10:14:28.959Z,11.58
2018-04-01T10:16:56.358Z,12.14
2018-04-01T10:19:25.042Z,12.45
2018-04-01T10:21:52.512Z,12.28
2018-04-01T10:24:20.867Z,11.77
2018-04-01T10:26:48.307Z,11.74
2018-04-01T10:29:15.763Z,11.91
2018-04-01T10:31:43.186Z,11.47
2018-04-01T10:34:10.667Z,11.22
2018-04-01T10:36:38.088Z,11.85
2018-04-01T10:39:05.549Z,11.82
2018-04-01T10:41:32.943Z,11.81
2018-04-01T10:44:00.410Z,12.15
2018-04-01T10:46:27.824Z,12.93
2018-04-01T10:48:55.344Z,12.95
2018-04-01T10:51:22.818Z,12.98
2018-04-01T10:53:56.872Z,13.29
2018-04-01T10:56:24.529Z,13.43
2018-04-01T10:58:51.402Z,13.12
2018-04-01T11:01:18.354Z,13.35
2018-04-01T11:03:45.282Z,12.95
2018-04-01T11:06:12.187Z,13.31
2018-04-01T11:08:39.074Z,13.87
2018-04-01T11:11:06.340Z,13.66
2018-04-01T11:13:33.232Z,13.75
2018-04-01T11:16:00.178Z,13.61
2018-04-01T11:18:27.061Z,13.62
2018-04-01T11:20:54.115Z,13.47
2018-04-01T11:23:21.004Z,13.67
2018-04-01T11:28:40.816Z,13.34
2018-04-01T11:31:07.751Z,14.04
2018-04-01T11:33:34.731Z,13.87
2018-04-01T11:36:01.655Z,14.14
2018-04-01T11:38:28.515Z,13.81
2018-04-01T11:40:55.418Z,13.84
2018-04-01T11:43:22.404Z,13.51
2018-04-01T11:45:49.309Z,13.80
2018-04-01T11:48:16.205Z,14.53
2018-04-01T11:50:43.066Z,14.16
2018-04-01T11:53:10.007Z,13.47
2018-04-01T11:55:36.864Z,14.01
2018-04-01T11:58:03.736Z,14.09
2018-04-01T12:00:30.606Z,14.69
2018-04-01T12:02:57.476Z,14.52
2018-04-01T12:05:24.361Z,14.17
2018-04-01T12:07:51.204Z,13.67
2018-04-01T12:10:18.092Z,13.82
2018-04-01T12:12:44.974Z,14.16
2018-04-01T12:15:11.871Z,14.43
2018-04-01T12:17:38.734Z,13.93
2018-04-01T12:20:05.684Z,13.71
2018-04-01T12:22:32.536Z,13.97
2018-04-01T12:24:59.502Z,14.06
2018-04-01T12:27:26.380Z,14.35
2018-04-01T12:29:53.245Z,14.20
2018-04-01T12:32:20.094Z,14.17
2018-04-01T12:34:46.983Z,14.39
2018-04-01T12:37:13.868Z,14.76
2018-04-01T12:39:41.099Z,14.83
2018-04-01T12:42:07.960Z,14.78
2018-04-01T12:44:34.838Z,15.04
2018-04-01T12:47:01.757Z,15.42
2018-04-01T12:49:28.757Z,15.85
2018-04-01T12:51:55.644Z,15.78
2018-04-01T12:54:22.525Z,15.88
2018-04-01T12:56:49.506Z,16.24
2018-04-01T12:59:16.721Z,16.08
2018-04-01T13:01:43.664Z,16.05
2018-04-01T13:04:10.542Z,16.56
2018-04-01T13:06:37.493Z,16.41
2018-04-01T13:09:04.403Z,16.05
2018-04-01T13:11:31.306Z,15.15
2018-04-01T13:13:58.218Z,14.82
2018-04-01T13:16:25.056Z,14.48
2018-04-01T13:18:51.986Z,14.44
2018-04-01T13:21:18.892Z,15.00
2018-04-01T13:23:45.750Z,15.29
2018-04-01T13:26:12.607Z,14.83
2018-04-01T13:28:39.694Z,14.12
2018-04-01T13:31:06.595Z,14.34
2018-04-01T13:33:33.520Z,14.80
2018-04-01T13:36:00.444Z,15.39
2018-04-01T13:38:27.382Z,15.28
2018-04-01T13:40:54.251Z,15.06
2018-04-01T13:43:21.239Z,14.67
2018-04-01T13:45:48.108Z,14.49
2018-04-01T13:48:15.032Z,14.14
2018-04-01T13:50:41.950Z,14.17
2018-04-01T13:53:09.024Z,14.56
2018-04-01T13:55:35.956Z,14.82
2018-04-01T13:58:03.056Z,14.67
2018-04-01T14:00:29.942Z,14.95
2018-04-01T14:02:56.905Z,15.33
2018-04-01T14:05:23.820Z,15.55
2018-04-01T14:07:50.746Z,15.61
2018-04-01T14:10:17.695Z,15.31
2018-04-01T14:12:44.676Z,14.80
2018-04-01T14:15:11.925Z,14.80
2018-04-01T14:17:38.870Z,15.32
2018-04-01T14:20:05.887Z,15.83
2018-04-01T14:22:32.780Z,15.89
2018-04-01T14:24:59.633Z,14.95
2018-04-01T14:27:26.530Z,14.76
2018-04-01T14:29:53.453Z,15.25
2018-04-01T14:32:21.100Z,14.64
2018-04-01T14:34:47.963Z,14.22
2018-04-01T14:37:14.850Z,13.92
2018-04-01T14:39:41.752Z,13.75
2018-04-01T14:42:08.605Z,13.81
2018-04-01T14:44:35.545Z,14.72
2018-04-01T14:47:02.445Z,15.40
2018-04-01T14:49:29.392Z,15.62
2018-04-01T14:51:56.265Z,15.10
2018-04-01T14:54:23.197Z,14.41
2018-04-01T14:56:50.101Z,13.97
2018-04-01T14:59:16.985Z,13.64
2018-04-01T15:01:43.912Z,13.51
2018-04-01T15:04:10.804Z,13.46
2018-04-01T15:06:37.709Z,13.59
2018-04-01T15:09:04.648Z,13.52
2018-04-01T15:11:31.521Z,13.49
2018-04-01T15:13:58.430Z,13.81
2018-04-01T15:16:25.325Z,13.85
2018-04-01T15:18:52.242Z,13.86
2018-04-01T15:21:19.091Z,13.75
2018-04-01T15:23:46.034Z,13.59
2018-04-01T15:26:12.953Z,13.72
2018-04-01T15:28:39.904Z,14.34
2018-04-01T15:31:06.827Z,14.37
2018-04-01T15:33:33.706Z,14.79
2018-04-01T15:36:00.642Z,15.08
2018-04-01T15:38:27.584Z,15.19
2018-04-01T15:40:54.486Z,14.89
2018-04-01T15:43:21.361Z,14.71
2018-04-01T15:45:48.306Z,14.47
2018-04-01T15:48:15.155Z,14.37
2018-04-01T15:50:42.506Z,14.13
2018-04-01T15:53:09.384Z,13.95
2018-04-01T15:55:36.312Z,13.83
2018-04-01T15:58:03.257Z,13.89
2018-04-01T16:00:30.177Z,14.18
2018-04-01T16:02:57.248Z,14.31
2018-04-01T16:05:24.141Z,14.15
2018-04-01T16:07:51.075Z,13.75
2018-04-01T16:10:17.939Z,13.53
2018-04-01T16:12:44.832Z,13.61
2018-04-01T16:15:11.714Z,13.87
2018-04-01T16:17:38.656Z,13.77
2018-04-01T16:20:05.573Z,13.69
2018-04-01T16:22:32.470Z,13.83
2018-04-01T16:24:59.395Z,13.67
2018-04-01T16:27:26.280Z,13.41
2018-04-01T16:29:53.156Z,13.35
2018-04-01T16:32:20.101Z,13.48
2018-04-01T16:34:46.957Z,13.48
2018-04-01T16:37:13.855Z,13.41
2018-04-01T16:39:40.781Z,13.31
2018-04-01T16:42:07.626Z,13.14
2018-04-01T16:44:34.542Z,13.03
2018-04-01T16:47:01.446Z,12.96
2018-04-01T16:49:28.390Z,12.84
2018-04-01T16:51:55.317Z,12.73
2018-04-01T16:54:22.223Z,12.62
2018-04-01T16:56:49.165Z,12.55
2018-04-01T16:59:16.041Z,12.55
2018-04-01T17:01:42.927Z,12.51
2018-04-01T17:04:09.871Z,12.42
2018-04-01T17:06:36.792Z,12.31
2018-04-01T17:09:03.693Z,12.30
2018-04-01T17:11:30.540Z,12.37
2018-04-01T17:13:57.405Z,12.43
2018-04-01T17:16:24.264Z,12.42
2018-04-01T17:18:51.177Z,12.39
2018-04-01T17:21:18.077Z,12.40
2018-04-01T17:23:44.982Z,12.37
2018-04-01T17:26:11.936Z,12.31
2018-04-01T17:28:38.832Z,12.29
2018-04-01T17:31:05.713Z,12.22
2018-04-01T17:33:32.611Z,12.12
2018-04-01T17:35:59.556Z,12.09
2018-04-01T17:38:26.409Z,12.06
2018-04-01T17:40:53.356Z,11.98
2018-04-01T17:43:20.263Z,11.87
2018-04-01T17:45:47.150Z,11.79
2018-04-01T17:48:14.296Z,11.71
2018-04-01T17:50:41.197Z,11.65
2018-04-01T17:53:08.060Z,11.57
2018-04-01T17:55:34.915Z,11.46
2018-04-01T17:58:01.798Z,11.41
2018-04-01T18:00:28.676Z,11.36
2018-04-01T18:02:55.655Z,11.34
2018-04-01T18:05:22.576Z,11.30
2018-04-01T18:07:49.426Z,11.23
2018-04-01T18:10:16.291Z,11.17
2018-04-01T18:12:43.228Z,11.15
2018-04-01T18:15:10.129Z,11.11
2018-04-01T18:17:37.045Z,11.09
2018-04-01T18:20:03.946Z,11.07
2018-04-01T18:22:30.860Z,11.00
2018-04-01T18:24:57.770Z,10.94
2018-04-01T18:27:24.661Z,10.89
2018-04-01T18:29:51.554Z,10.83
2018-04-01T18:32:18.487Z,10.76
2018-04-01T18:34:45.385Z,10.65
2018-04-01T18:37:12.275Z,10.54
2018-04-01T18:39:39.191Z,10.53
2018-04-01T18:42:06.069Z,10.55
2018-04-01T18:44:32.954Z,10.54
2018-04-01T18:46:59.852Z,10.55
2018-04-01T18:49:26.788Z,10.54
2018-04-01T18:51:53.676Z,10.57
2018-04-01T18:54:20.579Z,10.59
2018-04-01T18:56:47.447Z,10.47
2018-04-01T18:59:14.738Z,10.36
2018-04-01T19:01:41.665Z,10.22
2018-04-01T19:04:08.562Z,10.08
2018-04-01T19:06:35.427Z,10.03
2018-04-01T19:09:02.309Z,9.96
2018-04-01T19:11:29.618Z,9.96
2018-04-01T19:13:56.486Z,9.88
2018-04-01T19:16:23.974Z,9.85
2018-04-01T19:18:51.398Z,9.85
2018-04-01T19:21:18.832Z,9.78
2018-04-01T19:23:46.257Z,9.72
2018-04-01T19:26:13.972Z,9.65
2018-04-01T19:28:41.823Z,9.53
2018-04-01T19:31:09.300Z,9.47
2018-04-01T19:33:36.696Z,9.47
2018-04-01T19:36:04.128Z,9.51
2018-04-01T19:38:31.538Z,9.49
2018-04-01T19:40:58.958Z,9.45
2018-04-01T19:43:26.441Z,9.43
2018-04-01T19:45:53.905Z,9.44
2018-04-01T19:48:21.339Z,9.46
2018-04-01T19:50:48.724Z,9.42
2018-04-01T19:53:16.294Z,9.43
2018-04-01T19:55:43.755Z,9.42
2018-04-01T19:58:11.154Z,9.44
2018-04-01T20:00:38.557Z,9.43
2018-04-01T20:03:05.997Z,9.40
2018-04-01T20:05:33.483Z,9.42
2018-04-01T20:08:00.878Z,9.42
2018-04-01T20:10:28.301Z,9.43
2018-04-01T20:12:55.689Z,9.40
2018-04-01T20:15:23.084Z,9.31
2018-04-01T20:17:50.555Z,9.26
2018-04-01T20:20:18.146Z,9.21
2018-04-01T20:22:45.521Z,9.16
2018-04-01T20:25:12.989Z,9.08
2018-04-01T20:27:40.450Z,9.02
2018-04-01T20:30:07.898Z,8.96
2018-04-01T20:32:35.358Z,8.92
2018-04-01T20:35:03.184Z,8.87
2018-04-01T20:37:30.600Z,8.87
2018-04-01T20:39:58.003Z,8.86
2018-04-01T20:42:25.463Z,8.88
2018-04-01T20:44:53.226Z,8.84
2018-04-01T20:47:21.184Z,8.73
2018-04-01T20:49:48.576Z,8.63
2018-04-01T20:52:16.005Z,8.64
2018-04-01T20:54:43.471Z,8.63
2018-04-01T20:57:10.972Z,8.63
2018-04-01T20:59:38.396Z,8.68
2018-04-01T21:02:06.838Z,8.70
2018-04-01T21:04:34.260Z,8.62
2018-04-01T21:07:01.716Z,8.60
2018-04-01T21:09:29.192Z,8.65
2018-04-01T21:11:56.585Z,8.68
2018-04-01T21:14:24.018Z,8.54
2018-04-01T21:16:51.431Z,8.40
2018-04-01T21:19:18.908Z,8.27
2018-04-01T21:21:46.366Z,8.25
2018-04-01T21:24:13.813Z,8.22
2018-04-01T21:26:41.277Z,8.25
2018-04-01T21:29:08.822Z,8.26
2018-04-01T21:31:36.253Z,8.23
2018-04-01T21:34:03.693Z,8.17
2018-04-01T21:36:31.123Z,8.10
2018-04-01T21:38:58.516Z,8.03
2018-04-01T21:41:25.938Z,8.04
2018-04-01T21:43:53.403Z,7.98
2018-04-01T21:46:21.431Z,7.93
2018-04-01T21:48:48.828Z,7.88
2018-04-01T21:51:16.485Z,7.88
2018-04-01T21:53:43.902Z,7.89
2018-04-01T21:56:11.426Z,7.89
2018-04-01T21:58:38.852Z,7.89
2018-04-01T22:01:06.313Z,7.86
2018-04-01T22:03:33.735Z,7.83
2018-04-01T22:06:01.161Z,7.76
2018-04-01T22:08:28.577Z,7.72
2018-04-01T22:10:56.051Z,7.72
2018-04-01T22:13:23.524Z,7.67
2018-04-01T22:15:51.755Z,7.63
2018-04-01T22:18:19.140Z,7.65
2018-04-01T22:20:46.561Z,7.61
2018-04-01T22:23:13.995Z,7.50
2018-04-01T22:25:41.412Z,7.38
2018-04-01T22:28:08.886Z,7.33
2018-04-01T22:30:36.317Z,7.29
2018-04-01T22:33:03.728Z,7.23
2018-04-01T22:35:31.156Z,7.19
2018-04-01T22:37:58.564Z,7.13
2018-04-01T22:40:25.979Z,7.09
2018-04-01T22:42:53.412Z,7.02
2018-04-01T22:45:21.637Z,7.01
2018-04-01T22:47:49.027Z,7.04
2018-04-01T22:50:16.473Z,7.08
2018-04-01T22:52:43.878Z,7.13
2018-04-01T22:55:11.500Z,7.14
2018-04-01T22:57:38.971Z,7.13
2018-04-01T23:00:06.502Z,7.11
2018-04-01T23:02:33.885Z,7.09
2018-04-01T23:05:01.328Z,7.09
2018-04-01T23:07:28.799Z,7.09
2018-04-01T23:09:56.224Z,7.09
2018-04-01T23:12:23.658Z,7.05
2018-04-01T23:14:51.536Z,6.96
2018-04-01T23:17:19.042Z,6.91
2018-04-01T23:19:46.453Z,6.87
2018-04-01T23:22:13.930Z,6.84
2018-04-01T23:24:41.377Z,6.81
2018-04-01T23:27:08.788Z,6.81
2018-04-01T23:29:36.175Z,6.79
2018-04-01T23:32:03.990Z,6.72
2018-04-01T23:34:32.161Z,6.68
2018-04-01T23:36:59.581Z,6.61
2018-04-01T23:39:26.969Z,6.55
2018-04-01T23:41:54.367Z,6.47
2018-04-01T23:44:21.822Z,6.31
2018-04-01T23:46:49.250Z,6.20
2018-04-01T23:49:16.677Z,6.04
2018-04-01T23:51:44.193Z,5.94
2018-04-01T23:54:11.666Z,5.92
2018-04-01T23:56:39.113Z,5.93
2018-04-01T23:59:06.562Z,6.00
